sensor_id;sensor_type;location;lat;lon;timestamp;temperature;humidity
3067;DHT22;1544;48.834;9.194;2023-08-06T00:02:27;16.80;95.80
3067;DHT22;1544;48.834;9.194;2023-08-06T00:05:04;16.80;95.70
3067;DHT22;1544;48.834;9.194;2023-08-06T00:07:40;16.80;95.70
3067;DHT22;1544;48.834;9.194;2023-08-06T00:10:17;16.80;95.60
3067;DHT22;1544;48.834;9.194;2023-08-06T00:12:53;16.80;95.50
3067;DHT22;1544;48.834;9.194;2023-08-06T00:15:29;16.80;95.50
3067;DHT22;1544;48.834;9.194;2023-08-06T00:18:04;16.80;95.60
3067;DHT22;1544;48.834;9.194;2023-08-06T00:20:40;16.80;95.40
3067;DHT22;1544;48.834;9.194;2023-08-06T00:23:17;16.80;95.40
3067;DHT22;1544;48.834;9.194;2023-08-06T00:25:53;16.80;95.30
3067;DHT22;1544;48.834;9.194;2023-08-06T00:28:29;16.70;95.20
3067;DHT22;1544;48.834;9.194;2023-08-06T00:31:05;16.70;95.20
3067;DHT22;1544;48.834;9.194;2023-08-06T00:33:41;16.60;95.10
3067;DHT22;1544;48.834;9.194;2023-08-06T00:36:17;16.60;95.10
3067;DHT22;1544;48.834;9.194;2023-08-06T00:38:53;16.50;95.00
3067;DHT22;1544;48.834;9.194;2023-08-06T00:41:31;16.50;95.00
3067;DHT22;1544;48.834;9.194;2023-08-06T00:44:07;17.70;95.50
3067;DHT22;1544;48.834;9.194;2023-08-06T00:46:43;16.40;94.90
3067;DHT22;1544;48.834;9.194;2023-08-06T00:49:19;16.30;94.90
3067;DHT22;1544;48.834;9.194;2023-08-06T00:51:56;16.20;94.70
3067;DHT22;1544;48.834;9.194;2023-08-06T00:54:33;16.20;94.80
3067;DHT22;1544;48.834;9.194;2023-08-06T00:57:10;16.20;94.90
3067;DHT22;1544;48.834;9.194;2023-08-06T00:59:46;16.20;94.90
3067;DHT22;1544;48.834;9.194;2023-08-06T01:02:23;16.20;95.00
3067;DHT22;1544;48.834;9.194;2023-08-06T01:04:59;16.10;94.90
3067;DHT22;1544;48.834;9.194;2023-08-06T01:10:52;16.10;95.00
3067;DHT22;1544;48.834;9.194;2023-08-06T01:13:45;16.10;95.00
3067;DHT22;1544;48.834;9.194;2023-08-06T01:16:24;16.00;94.90
3067;DHT22;1544;48.834;9.194;2023-08-06T01:19:00;16.00;94.90
3067;DHT22;1544;48.834;9.194;2023-08-06T01:21:36;15.90;94.80
3067;DHT22;1544;48.834;9.194;2023-08-06T01:24:12;15.90;94.80
3067;DHT22;1544;48.834;9.194;2023-08-06T01:26:57;15.80;94.70
3067;DHT22;1544;48.834;9.194;2023-08-06T01:29:43;15.90;94.90
3067;DHT22;1544;48.834;9.194;2023-08-06T01:32:21;15.90;94.90
3067;DHT22;1544;48.834;9.194;2023-08-06T01:35:00;15.90;94.90
3067;DHT22;1544;48.834;9.194;2023-08-06T01:37:38;15.90;94.90
3067;DHT22;1544;48.834;9.194;2023-08-06T01:40:14;15.90;94.90
3067;DHT22;1544;48.834;9.194;2023-08-06T01:42:50;15.90;94.90
3067;DHT22;1544;48.834;9.194;2023-08-06T01:45:27;15.90;94.90
3067;DHT22;1544;48.834;9.194;2023-08-06T01:48:03;15.90;94.90
3067;DHT22;1544;48.834;9.194;2023-08-06T01:50:40;15.90;94.90
3067;DHT22;1544;48.834;9.194;2023-08-06T01:53:15;15.90;94.90
3067;DHT22;1544;48.834;9.194;2023-08-06T01:55:51;15.90;94.90
3067;DHT22;1544;48.834;9.194;2023-08-06T01:58:28;16.40;95.10
3067;DHT22;1544;48.834;9.194;2023-08-06T02:01:04;15.90;94.80
3067;DHT22;1544;48.834;9.194;2023-08-06T02:03:40;15.90;94.80
3067;DHT22;1544;48.834;9.194;2023-08-06T02:06:16;15.80;94.50
3067;DHT22;1544;48.834;9.194;2023-08-06T02:08:53;15.80;94.70
3067;DHT22;1544;48.834;9.194;2023-08-06T02:11:29;15.80;94.60
3067;DHT22;1544;48.834;9.194;2023-08-06T02:14:05;15.70;94.40
3067;DHT22;1544;48.834;9.194;2023-08-06T02:16:41;15.70;94.40
3067;DHT22;1544;48.834;9.194;2023-08-06T02:19:17;15.60;94.40
3067;DHT22;1544;48.834;9.194;2023-08-06T02:21:53;15.50;94.10
3067;DHT22;1544;48.834;9.194;2023-08-06T02:24:30;15.50;94.30
3067;DHT22;1544;48.834;9.194;2023-08-06T02:27:06;15.40;94.20
3067;DHT22;1544;48.834;9.194;2023-08-06T02:29:42;15.40;94.30
3067;DHT22;1544;48.834;9.194;2023-08-06T02:32:19;15.40;94.30
3067;DHT22;1544;48.834;9.194;2023-08-06T02:34:55;15.30;94.10
3067;DHT22;1544;48.834;9.194;2023-08-06T02:37:33;15.30;94.10
3067;DHT22;1544;48.834;9.194;2023-08-06T02:40:10;15.30;94.20
3067;DHT22;1544;48.834;9.194;2023-08-06T02:42:46;15.30;94.30
3067;DHT22;1544;48.834;9.194;2023-08-06T02:45:22;15.20;94.20
3067;DHT22;1544;48.834;9.194;2023-08-06T02:47:58;15.20;94.30
3067;DHT22;1544;48.834;9.194;2023-08-06T02:50:41;15.10;94.10
3067;DHT22;1544;48.834;9.194;2023-08-06T02:53:17;15.10;94.30
3067;DHT22;1544;48.834;9.194;2023-08-06T02:55:55;15.10;94.30
3067;DHT22;1544;48.834;9.194;2023-08-06T02:58:39;15.00;94.10
3067;DHT22;1544;48.834;9.194;2023-08-06T03:01:24;15.00;94.30
3067;DHT22;1544;48.834;9.194;2023-08-06T03:06:51;15.00;94.20
3067;DHT22;1544;48.834;9.194;2023-08-06T03:09:31;15.00;94.30
3067;DHT22;1544;48.834;9.194;2023-08-06T03:12:08;15.10;94.40
3067;DHT22;1544;48.834;9.194;2023-08-06T03:14:45;15.10;94.40
3067;DHT22;1544;48.834;9.194;2023-08-06T03:17:21;15.10;94.40
3067;DHT22;1544;48.834;9.194;2023-08-06T03:19:57;15.20;94.50
3067;DHT22;1544;48.834;9.194;2023-08-06T03:22:34;15.20;94.50
3067;DHT22;1544;48.834;9.194;2023-08-06T03:25:10;15.20;94.40
3067;DHT22;1544;48.834;9.194;2023-08-06T03:27:46;15.20;94.40
3067;DHT22;1544;48.834;9.194;2023-08-06T03:30:25;15.20;94.60
3067;DHT22;1544;48.834;9.194;2023-08-06T03:33:02;15.30;94.60
3067;DHT22;1544;48.834;9.194;2023-08-06T03:35:38;15.30;94.40
3067;DHT22;1544;48.834;9.194;2023-08-06T03:38:15;15.40;94.40
3067;DHT22;1544;48.834;9.194;2023-08-06T03:40:51;15.40;94.50
3067;DHT22;1544;48.834;9.194;2023-08-06T03:43:27;15.40;94.50
3067;DHT22;1544;48.834;9.194;2023-08-06T03:46:03;15.40;94.40
3067;DHT22;1544;48.834;9.194;2023-08-06T03:48:40;15.40;94.30
3067;DHT22;1544;48.834;9.194;2023-08-06T03:51:16;15.40;94.10
3067;DHT22;1544;48.834;9.194;2023-08-06T03:53:54;15.40;94.30
3067;DHT22;1544;48.834;9.194;2023-08-06T03:56:30;15.40;94.20
3067;DHT22;1544;48.834;9.194;2023-08-06T03:59:05;15.40;94.10
3067;DHT22;1544;48.834;9.194;2023-08-06T04:01:42;15.50;94.10
3067;DHT22;1544;48.834;9.194;2023-08-06T04:04:18;15.40;94.20
3067;DHT22;1544;48.834;9.194;2023-08-06T04:06:54;15.50;94.10
3067;DHT22;1544;48.834;9.194;2023-08-06T04:09:30;15.50;94.20
3067;DHT22;1544;48.834;9.194;2023-08-06T04:12:07;15.50;94.00
3067;DHT22;1544;48.834;9.194;2023-08-06T04:17:21;15.50;94.10
3067;DHT22;1544;48.834;9.194;2023-08-06T04:19:57;15.50;94.20
3067;DHT22;1544;48.834;9.194;2023-08-06T04:22:35;15.50;94.20
3067;DHT22;1544;48.834;9.194;2023-08-06T04:25:10;15.50;94.10
3067;DHT22;1544;48.834;9.194;2023-08-06T04:27:47;15.50;94.10
3067;DHT22;1544;48.834;9.194;2023-08-06T04:30:23;15.50;94.10
3067;DHT22;1544;48.834;9.194;2023-08-06T04:33:00;15.50;94.10
3067;DHT22;1544;48.834;9.194;2023-08-06T04:35:36;15.50;94.10
3067;DHT22;1544;48.834;9.194;2023-08-06T04:38:12;15.50;94.10
3067;DHT22;1544;48.834;9.194;2023-08-06T04:40:48;15.60;94.20
3067;DHT22;1544;48.834;9.194;2023-08-06T04:43:25;15.60;94.20
3067;DHT22;1544;48.834;9.194;2023-08-06T04:46:02;15.60;94.20
3067;DHT22;1544;48.834;9.194;2023-08-06T04:48:37;15.60;94.10
3067;DHT22;1544;48.834;9.194;2023-08-06T04:51:13;15.60;94.10
3067;DHT22;1544;48.834;9.194;2023-08-06T04:53:49;15.60;94.10
3067;DHT22;1544;48.834;9.194;2023-08-06T04:56:25;15.60;94.00
3067;DHT22;1544;48.834;9.194;2023-08-06T04:59:02;15.60;94.00
3067;DHT22;1544;48.834;9.194;2023-08-06T05:01:37;15.60;94.00
3067;DHT22;1544;48.834;9.194;2023-08-06T05:04:13;15.50;93.90
3067;DHT22;1544;48.834;9.194;2023-08-06T05:06:49;15.50;93.90
3067;DHT22;1544;48.834;9.194;2023-08-06T05:09:25;15.50;93.90
3067;DHT22;1544;48.834;9.194;2023-08-06T05:12:03;15.60;93.90
3067;DHT22;1544;48.834;9.194;2023-08-06T05:14:39;15.50;94.00
3067;DHT22;1544;48.834;9.194;2023-08-06T05:17:15;15.60;94.20
3067;DHT22;1544;48.834;9.194;2023-08-06T05:19:51;15.60;94.20
3067;DHT22;1544;48.834;9.194;2023-08-06T05:22:27;15.70;94.20
3067;DHT22;1544;48.834;9.194;2023-08-06T05:25:04;15.80;94.30
3067;DHT22;1544;48.834;9.194;2023-08-06T05:27:40;15.80;94.20
3067;DHT22;1544;48.834;9.194;2023-08-06T05:30:16;15.90;94.10
3067;DHT22;1544;48.834;9.194;2023-08-06T05:32:52;15.90;94.20
3067;DHT22;1544;48.834;9.194;2023-08-06T05:35:28;16.00;94.40
3067;DHT22;1544;48.834;9.194;2023-08-06T05:38:04;16.20;94.40
3067;DHT22;1544;48.834;9.194;2023-08-06T05:40:40;16.20;94.40
3067;DHT22;1544;48.834;9.194;2023-08-06T05:43:16;16.20;94.50
3067;DHT22;1544;48.834;9.194;2023-08-06T05:45:52;16.40;94.60
3067;DHT22;1544;48.834;9.194;2023-08-06T05:48:28;16.50;94.60
3067;DHT22;1544;48.834;9.194;2023-08-06T05:51:04;16.50;94.60
3067;DHT22;1544;48.834;9.194;2023-08-06T05:53:40;16.60;94.60
3067;DHT22;1544;48.834;9.194;2023-08-06T05:56:16;16.60;94.40
3067;DHT22;1544;48.834;9.194;2023-08-06T05:58:52;16.70;94.50
3067;DHT22;1544;48.834;9.194;2023-08-06T06:01:29;16.80;94.50
3067;DHT22;1544;48.834;9.194;2023-08-06T06:04:05;16.80;94.40
3067;DHT22;1544;48.834;9.194;2023-08-06T06:06:41;16.80;94.30
3067;DHT22;1544;48.834;9.194;2023-08-06T06:09:17;16.90;94.20
3067;DHT22;1544;48.834;9.194;2023-08-06T06:11:54;16.90;94.00
3067;DHT22;1544;48.834;9.194;2023-08-06T06:14:30;16.90;94.10
3067;DHT22;1544;48.834;9.194;2023-08-06T06:17:06;16.90;94.10
3067;DHT22;1544;48.834;9.194;2023-08-06T06:19:42;17.00;94.20
3067;DHT22;1544;48.834;9.194;2023-08-06T06:22:18;17.00;94.10
3067;DHT22;1544;48.834;9.194;2023-08-06T06:24:54;17.00;93.70
3067;DHT22;1544;48.834;9.194;2023-08-06T06:27:30;16.80;93.10
3067;DHT22;1544;48.834;9.194;2023-08-06T06:30:07;16.70;92.90
3067;DHT22;1544;48.834;9.194;2023-08-06T06:32:43;16.60;92.80
3067;DHT22;1544;48.834;9.194;2023-08-06T06:35:19;16.60;92.90
3067;DHT22;1544;48.834;9.194;2023-08-06T06:37:55;16.50;93.00
3067;DHT22;1544;48.834;9.194;2023-08-06T06:40:31;16.50;93.20
3067;DHT22;1544;48.834;9.194;2023-08-06T06:43:08;16.50;93.20
3067;DHT22;1544;48.834;9.194;2023-08-06T06:45:44;16.50;93.30
3067;DHT22;1544;48.834;9.194;2023-08-06T06:48:20;16.50;93.40
3067;DHT22;1544;48.834;9.194;2023-08-06T06:50:56;16.50;93.30
3067;DHT22;1544;48.834;9.194;2023-08-06T06:53:32;16.50;93.50
3067;DHT22;1544;48.834;9.194;2023-08-06T06:56:08;16.60;93.70
3067;DHT22;1544;48.834;9.194;2023-08-06T06:58:44;16.70;93.70
3067;DHT22;1544;48.834;9.194;2023-08-06T07:01:20;16.70;93.40
3067;DHT22;1544;48.834;9.194;2023-08-06T07:03:56;16.60;93.10
3067;DHT22;1544;48.834;9.194;2023-08-06T07:06:33;16.60;93.00
3067;DHT22;1544;48.834;9.194;2023-08-06T07:09:09;16.60;93.00
3067;DHT22;1544;48.834;9.194;2023-08-06T07:11:45;16.70;93.10
3067;DHT22;1544;48.834;9.194;2023-08-06T07:14:21;16.80;93.30
3067;DHT22;1544;48.834;9.194;2023-08-06T07:16:57;16.70;93.50
3067;DHT22;1544;48.834;9.194;2023-08-06T07:19:33;16.70;93.20
3067;DHT22;1544;48.834;9.194;2023-08-06T07:22:09;16.80;93.00
3067;DHT22;1544;48.834;9.194;2023-08-06T07:27:21;16.80;93.20
3067;DHT22;1544;48.834;9.194;2023-08-06T07:29:57;16.80;93.30
3067;DHT22;1544;48.834;9.194;2023-08-06T07:32:34;16.80;93.40
3067;DHT22;1544;48.834;9.194;2023-08-06T07:35:10;16.80;93.40
3067;DHT22;1544;48.834;9.194;2023-08-06T07:37:48;16.80;93.10
3067;DHT22;1544;48.834;9.194;2023-08-06T07:40:24;16.70;93.10
3067;DHT22;1544;48.834;9.194;2023-08-06T07:43:00;16.70;93.10
3067;DHT22;1544;48.834;9.194;2023-08-06T07:45:36;16.70;93.20
3067;DHT22;1544;48.834;9.194;2023-08-06T07:48:13;16.70;93.50
3067;DHT22;1544;48.834;9.194;2023-08-06T07:50:52;16.70;93.10
3067;DHT22;1544;48.834;9.194;2023-08-06T07:53:29;16.80;93.40
3067;DHT22;1544;48.834;9.194;2023-08-06T07:56:05;16.90;93.70
3067;DHT22;1544;48.834;9.194;2023-08-06T07:58:41;17.00;93.90
3067;DHT22;1544;48.834;9.194;2023-08-06T08:01:17;17.10;93.50
3067;DHT22;1544;48.834;9.194;2023-08-06T08:03:54;17.10;93.40
3067;DHT22;1544;48.834;9.194;2023-08-06T08:06:30;17.20;93.20
3067;DHT22;1544;48.834;9.194;2023-08-06T08:09:06;17.20;93.40
3067;DHT22;1544;48.834;9.194;2023-08-06T08:11:42;17.40;93.80
3067;DHT22;1544;48.834;9.194;2023-08-06T08:14:19;17.50;93.70
3067;DHT22;1544;48.834;9.194;2023-08-06T08:16:55;17.80;94.00
3067;DHT22;1544;48.834;9.194;2023-08-06T08:19:32;17.80;94.20
3067;DHT22;1544;48.834;9.194;2023-08-06T08:22:08;18.30;94.50
3067;DHT22;1544;48.834;9.194;2023-08-06T08:24:44;18.30;94.60
3067;DHT22;1544;48.834;9.194;2023-08-06T08:27:20;17.90;94.20
3067;DHT22;1544;48.834;9.194;2023-08-06T08:29:56;18.60;94.50
3067;DHT22;1544;48.834;9.194;2023-08-06T08:32:32;18.70;94.00
3067;DHT22;1544;48.834;9.194;2023-08-06T08:35:08;18.80;93.20
3067;DHT22;1544;48.834;9.194;2023-08-06T08:37:44;18.90;93.10
3067;DHT22;1544;48.834;9.194;2023-08-06T08:40:22;19.00;92.10
3067;DHT22;1544;48.834;9.194;2023-08-06T08:43:09;18.90;91.20
3067;DHT22;1544;48.834;9.194;2023-08-06T08:45:49;18.80;90.60
3067;DHT22;1544;48.834;9.194;2023-08-06T08:48:26;18.80;91.30
3067;DHT22;1544;48.834;9.194;2023-08-06T08:51:03;18.80;91.20
3067;DHT22;1544;48.834;9.194;2023-08-06T08:53:40;18.90;91.80
3067;DHT22;1544;48.834;9.194;2023-08-06T08:56:17;19.00;91.00
3067;DHT22;1544;48.834;9.194;2023-08-06T08:58:53;18.90;91.00
3067;DHT22;1544;48.834;9.194;2023-08-06T09:01:31;19.10;91.90
3067;DHT22;1544;48.834;9.194;2023-08-06T09:04:09;19.10;91.50
3067;DHT22;1544;48.834;9.194;2023-08-06T09:06:48;18.80;88.80
3067;DHT22;1544;48.834;9.194;2023-08-06T09:09:30;18.60;85.10
3067;DHT22;1544;48.834;9.194;2023-08-06T09:12:26;18.40;86.50
3067;DHT22;1544;48.834;9.194;2023-08-06T09:15:02;18.10;87.10
3067;DHT22;1544;48.834;9.194;2023-08-06T09:17:39;18.10;88.40
3067;DHT22;1544;48.834;9.194;2023-08-06T09:20:15;18.10;90.20
3067;DHT22;1544;48.834;9.194;2023-08-06T09:22:55;18.10;90.60
3067;DHT22;1544;48.834;9.194;2023-08-06T09:25:31;18.10;91.10
3067;DHT22;1544;48.834;9.194;2023-08-06T09:28:07;18.20;91.00
3067;DHT22;1544;48.834;9.194;2023-08-06T09:30:47;18.30;91.10
3067;DHT22;1544;48.834;9.194;2023-08-06T09:33:24;18.30;91.20
3067;DHT22;1544;48.834;9.194;2023-08-06T09:36:07;18.50;90.70
3067;DHT22;1544;48.834;9.194;2023-08-06T09:38:45;18.60;90.00
3067;DHT22;1544;48.834;9.194;2023-08-06T09:41:27;18.50;87.70
3067;DHT22;1544;48.834;9.194;2023-08-06T09:44:04;22.80;90.70
3067;DHT22;1544;48.834;9.194;2023-08-06T09:46:40;18.30;87.70
3067;DHT22;1544;48.834;9.194;2023-08-06T09:49:18;18.30;89.30
3067;DHT22;1544;48.834;9.194;2023-08-06T09:51:59;18.40;85.70
3067;DHT22;1544;48.834;9.194;2023-08-06T09:54:37;18.30;86.00
3067;DHT22;1544;48.834;9.194;2023-08-06T09:57:14;18.20;86.00
3067;DHT22;1544;48.834;9.194;2023-08-06T09:59:51;18.20;86.20
3067;DHT22;1544;48.834;9.194;2023-08-06T10:02:28;18.10;88.20
3067;DHT22;1544;48.834;9.194;2023-08-06T10:05:06;18.00;86.90
3067;DHT22;1544;48.834;9.194;2023-08-06T10:10:20;18.00;87.60
3067;DHT22;1544;48.834;9.194;2023-08-06T10:12:58;18.00;86.60
3067;DHT22;1544;48.834;9.194;2023-08-06T10:15:36;17.90;85.50
3067;DHT22;1544;48.834;9.194;2023-08-06T10:18:14;18.00;86.00
3067;DHT22;1544;48.834;9.194;2023-08-06T10:20:53;18.30;85.30
3067;DHT22;1544;48.834;9.194;2023-08-06T10:23:40;18.40;82.60
3067;DHT22;1544;48.834;9.194;2023-08-06T10:26:16;18.40;81.20
3067;DHT22;1544;48.834;9.194;2023-08-06T10:28:52;18.20;71.90
3067;DHT22;1544;48.834;9.194;2023-08-06T10:31:55;18.20;72.30
3067;DHT22;1544;48.834;9.194;2023-08-06T10:34:57;18.40;70.30
3067;DHT22;1544;48.834;9.194;2023-08-06T10:37:37;18.30;67.70
3067;DHT22;1544;48.834;9.194;2023-08-06T10:40:21;18.60;64.10
3067;DHT22;1544;48.834;9.194;2023-08-06T10:43:01;18.60;64.00
3067;DHT22;1544;48.834;9.194;2023-08-06T10:45:38;18.70;60.40
3067;DHT22;1544;48.834;9.194;2023-08-06T10:48:35;18.70;61.90
3067;DHT22;1544;48.834;9.194;2023-08-06T10:51:13;18.90;60.00
3067;DHT22;1544;48.834;9.194;2023-08-06T10:53:51;19.10;56.30
3067;DHT22;1544;48.834;9.194;2023-08-06T10:56:27;19.10;55.20
3067;DHT22;1544;48.834;9.194;2023-08-06T10:59:03;19.00;54.50
3067;DHT22;1544;48.834;9.194;2023-08-06T11:01:39;18.70;53.50
3067;DHT22;1544;48.834;9.194;2023-08-06T11:04:16;18.40;61.60
3067;DHT22;1544;48.834;9.194;2023-08-06T11:06:53;17.80;67.80
3067;DHT22;1544;48.834;9.194;2023-08-06T11:09:29;17.40;70.10
3067;DHT22;1544;48.834;9.194;2023-08-06T11:12:11;17.00;71.10
3067;DHT22;1544;48.834;9.194;2023-08-06T11:14:50;16.70;72.20
3067;DHT22;1544;48.834;9.194;2023-08-06T11:17:31;16.60;79.70
3067;DHT22;1544;48.834;9.194;2023-08-06T11:20:09;16.60;78.20
3067;DHT22;1544;48.834;9.194;2023-08-06T11:22:45;16.60;78.80
3067;DHT22;1544;48.834;9.194;2023-08-06T11:27:57;16.50;76.20
3067;DHT22;1544;48.834;9.194;2023-08-06T11:30:33;16.40;72.60
3067;DHT22;1544;48.834;9.194;2023-08-06T11:33:09;16.50;69.70
3067;DHT22;1544;48.834;9.194;2023-08-06T11:35:45;16.50;66.00
3067;DHT22;1544;48.834;9.194;2023-08-06T11:38:24;16.70;64.20
3067;DHT22;1544;48.834;9.194;2023-08-06T11:41:04;16.80;64.30
3067;DHT22;1544;48.834;9.194;2023-08-06T11:43:45;16.90;58.30
3067;DHT22;1544;48.834;9.194;2023-08-06T11:46:21;17.00;57.30
3067;DHT22;1544;48.834;9.194;2023-08-06T11:48:59;17.00;61.90
3067;DHT22;1544;48.834;9.194;2023-08-06T11:51:35;16.90;68.10
3067;DHT22;1544;48.834;9.194;2023-08-06T11:54:11;16.70;72.50
3067;DHT22;1544;48.834;9.194;2023-08-06T11:56:47;16.40;76.40
3067;DHT22;1544;48.834;9.194;2023-08-06T11:59:25;16.10;79.40
3067;DHT22;1544;48.834;9.194;2023-08-06T12:02:09;16.10;78.90
3067;DHT22;1544;48.834;9.194;2023-08-06T12:05:04;15.80;83.90
3067;DHT22;1544;48.834;9.194;2023-08-06T12:07:54;15.60;87.30
3067;DHT22;1544;48.834;9.194;2023-08-06T12:10:32;15.50;89.30
3067;DHT22;1544;48.834;9.194;2023-08-06T12:13:08;15.20;89.30
3067;DHT22;1544;48.834;9.194;2023-08-06T12:15:45;15.10;90.30
3067;DHT22;1544;48.834;9.194;2023-08-06T12:18:21;15.00;90.80
3067;DHT22;1544;48.834;9.194;2023-08-06T12:20:58;14.80;91.00
3067;DHT22;1544;48.834;9.194;2023-08-06T12:23:34;14.80;91.60
3067;DHT22;1544;48.834;9.194;2023-08-06T12:26:10;14.70;91.80
3067;DHT22;1544;48.834;9.194;2023-08-06T12:28:46;14.70;91.70
3067;DHT22;1544;48.834;9.194;2023-08-06T12:31:22;14.70;92.20
3067;DHT22;1544;48.834;9.194;2023-08-06T12:33:58;14.70;92.40
3067;DHT22;1544;48.834;9.194;2023-08-06T12:36:34;14.80;92.50
3067;DHT22;1544;48.834;9.194;2023-08-06T12:39:10;14.80;92.40
3067;DHT22;1544;48.834;9.194;2023-08-06T12:41:46;14.90;92.30
3067;DHT22;1544;48.834;9.194;2023-08-06T12:44:22;15.10;91.90
3067;DHT22;1544;48.834;9.194;2023-08-06T12:46:59;15.30;91.10
3067;DHT22;1544;48.834;9.194;2023-08-06T12:49:36;15.60;90.60
3067;DHT22;1544;48.834;9.194;2023-08-06T12:52:12;15.90;88.40
3067;DHT22;1544;48.834;9.194;2023-08-06T12:54:51;16.20;86.40
3067;DHT22;1544;48.834;9.194;2023-08-06T12:57:26;16.50;80.40
3067;DHT22;1544;48.834;9.194;2023-08-06T13:00:22;16.70;80.80
3067;DHT22;1544;48.834;9.194;2023-08-06T13:02:58;16.90;75.00
3067;DHT22;1544;48.834;9.194;2023-08-06T13:05:34;18.50;74.50
3067;DHT22;1544;48.834;9.194;2023-08-06T13:08:10;17.10;64.40
3067;DHT22;1544;48.834;9.194;2023-08-06T13:10:46;17.30;68.00
3067;DHT22;1544;48.834;9.194;2023-08-06T13:13:22;17.50;63.10
3067;DHT22;1544;48.834;9.194;2023-08-06T13:15:58;17.60;62.60
3067;DHT22;1544;48.834;9.194;2023-08-06T13:18:34;17.90;65.60
3067;DHT22;1544;48.834;9.194;2023-08-06T13:21:10;18.00;57.00
3067;DHT22;1544;48.834;9.194;2023-08-06T13:23:46;18.20;51.60
3067;DHT22;1544;48.834;9.194;2023-08-06T13:26:23;18.30;50.60
3067;DHT22;1544;48.834;9.194;2023-08-06T13:29:00;18.40;50.00
3067;DHT22;1544;48.834;9.194;2023-08-06T13:31:37;18.30;50.50
3067;DHT22;1544;48.834;9.194;2023-08-06T13:34:21;18.40;49.00
3067;DHT22;1544;48.834;9.194;2023-08-06T13:36:57;18.60;50.00
3067;DHT22;1544;48.834;9.194;2023-08-06T13:39:42;18.70;46.20
3067;DHT22;1544;48.834;9.194;2023-08-06T13:42:23;18.90;48.40
3067;DHT22;1544;48.834;9.194;2023-08-06T13:45:09;18.90;48.60
3067;DHT22;1544;48.834;9.194;2023-08-06T13:47:48;18.80;47.80
3067;DHT22;1544;48.834;9.194;2023-08-06T13:50:40;18.90;47.50
3067;DHT22;1544;48.834;9.194;2023-08-06T13:53:34;19.00;47.20
3067;DHT22;1544;48.834;9.194;2023-08-06T13:56:18;19.00;46.00
3067;DHT22;1544;48.834;9.194;2023-08-06T13:59:11;18.90;45.50
3067;DHT22;1544;48.834;9.194;2023-08-06T14:01:51;18.90;47.20
3067;DHT22;1544;48.834;9.194;2023-08-06T14:04:31;18.80;46.50
3067;DHT22;1544;48.834;9.194;2023-08-06T14:07:07;18.80;47.30
3067;DHT22;1544;48.834;9.194;2023-08-06T14:09:43;18.80;49.80
3067;DHT22;1544;48.834;9.194;2023-08-06T14:12:20;18.60;47.80
3067;DHT22;1544;48.834;9.194;2023-08-06T14:14:56;18.40;50.00
3067;DHT22;1544;48.834;9.194;2023-08-06T14:17:32;18.10;53.80
3067;DHT22;1544;48.834;9.194;2023-08-06T14:20:09;17.90;51.10
3067;DHT22;1544;48.834;9.194;2023-08-06T14:22:47;17.80;53.70
3067;DHT22;1544;48.834;9.194;2023-08-06T14:25:23;17.80;48.00
3067;DHT22;1544;48.834;9.194;2023-08-06T14:27:59;17.80;51.20
3067;DHT22;1544;48.834;9.194;2023-08-06T14:30:36;18.40;48.50
3067;DHT22;1544;48.834;9.194;2023-08-06T14:33:12;17.80;51.30
3067;DHT22;1544;48.834;9.194;2023-08-06T14:36:01;18.00;51.60
3067;DHT22;1544;48.834;9.194;2023-08-06T14:38:38;19.10;51.40
3067;DHT22;1544;48.834;9.194;2023-08-06T14:41:34;18.30;50.00
3067;DHT22;1544;48.834;9.194;2023-08-06T14:44:10;18.40;48.60
3067;DHT22;1544;48.834;9.194;2023-08-06T14:46:47;18.40;47.70
3067;DHT22;1544;48.834;9.194;2023-08-06T14:49:23;18.40;47.40
3067;DHT22;1544;48.834;9.194;2023-08-06T14:51:59;18.30;46.40
3067;DHT22;1544;48.834;9.194;2023-08-06T14:54:37;18.30;45.70
3067;DHT22;1544;48.834;9.194;2023-08-06T14:57:14;18.20;46.30
3067;DHT22;1544;48.834;9.194;2023-08-06T14:59:50;18.30;46.60
3067;DHT22;1544;48.834;9.194;2023-08-06T15:02:26;18.30;44.90
3067;DHT22;1544;48.834;9.194;2023-08-06T15:05:03;18.30;45.10
3067;DHT22;1544;48.834;9.194;2023-08-06T15:07:40;18.20;44.80
3067;DHT22;1544;48.834;9.194;2023-08-06T15:10:16;18.10;45.20
3067;DHT22;1544;48.834;9.194;2023-08-06T15:12:55;18.00;46.80
3067;DHT22;1544;48.834;9.194;2023-08-06T15:15:31;17.90;46.20
3067;DHT22;1544;48.834;9.194;2023-08-06T15:18:08;17.80;45.60
3067;DHT22;1544;48.834;9.194;2023-08-06T15:20:44;17.80;45.50
3067;DHT22;1544;48.834;9.194;2023-08-06T15:23:20;17.70;48.90
3067;DHT22;1544;48.834;9.194;2023-08-06T15:25:56;17.40;51.00
3067;DHT22;1544;48.834;9.194;2023-08-06T15:28:32;17.20;51.60
3067;DHT22;1544;48.834;9.194;2023-08-06T15:31:08;17.20;50.00
3067;DHT22;1544;48.834;9.194;2023-08-06T15:33:44;17.20;48.00
3067;DHT22;1544;48.834;9.194;2023-08-06T15:36:21;17.40;46.30
3067;DHT22;1544;48.834;9.194;2023-08-06T15:39:00;17.50;46.00
3067;DHT22;1544;48.834;9.194;2023-08-06T15:41:37;17.60;45.30
3067;DHT22;1544;48.834;9.194;2023-08-06T15:44:13;17.60;43.10
3067;DHT22;1544;48.834;9.194;2023-08-06T15:46:49;17.60;43.60
3067;DHT22;1544;48.834;9.194;2023-08-06T15:49:25;17.70;43.90
3067;DHT22;1544;48.834;9.194;2023-08-06T15:52:01;17.80;43.60
3067;DHT22;1544;48.834;9.194;2023-08-06T15:54:37;17.80;42.60
3067;DHT22;1544;48.834;9.194;2023-08-06T15:57:13;17.80;41.40
3067;DHT22;1544;48.834;9.194;2023-08-06T15:59:51;17.90;42.60
3067;DHT22;1544;48.834;9.194;2023-08-06T16:02:27;18.00;42.60
3067;DHT22;1544;48.834;9.194;2023-08-06T16:05:04;18.00;42.90
3067;DHT22;1544;48.834;9.194;2023-08-06T16:07:40;18.00;42.10
3067;DHT22;1544;48.834;9.194;2023-08-06T16:10:16;18.00;42.10
3067;DHT22;1544;48.834;9.194;2023-08-06T16:12:52;17.90;41.50
3067;DHT22;1544;48.834;9.194;2023-08-06T16:15:28;18.00;42.50
3067;DHT22;1544;48.834;9.194;2023-08-06T16:18:06;17.90;42.10
3067;DHT22;1544;48.834;9.194;2023-08-06T16:20:42;17.70;44.10
3067;DHT22;1544;48.834;9.194;2023-08-06T16:23:19;17.60;43.60
3067;DHT22;1544;48.834;9.194;2023-08-06T16:25:56;17.40;42.50
3067;DHT22;1544;48.834;9.194;2023-08-06T16:28:32;17.40;42.90
3067;DHT22;1544;48.834;9.194;2023-08-06T16:31:08;17.30;42.70
3067;DHT22;1544;48.834;9.194;2023-08-06T16:33:46;17.30;43.30
3067;DHT22;1544;48.834;9.194;2023-08-06T16:36:22;17.30;43.60
3067;DHT22;1544;48.834;9.194;2023-08-06T16:38:58;17.20;43.20
3067;DHT22;1544;48.834;9.194;2023-08-06T16:41:35;17.20;43.00
3067;DHT22;1544;48.834;9.194;2023-08-06T16:44:11;17.20;46.50
3067;DHT22;1544;48.834;9.194;2023-08-06T16:46:48;16.90;54.20
3067;DHT22;1544;48.834;9.194;2023-08-06T16:49:24;16.50;55.50
3067;DHT22;1544;48.834;9.194;2023-08-06T16:51:59;16.20;65.20
3067;DHT22;1544;48.834;9.194;2023-08-06T16:54:36;15.80;74.60
3067;DHT22;1544;48.834;9.194;2023-08-06T16:57:12;15.40;80.30
3067;DHT22;1544;48.834;9.194;2023-08-06T16:59:48;15.00;84.00
3067;DHT22;1544;48.834;9.194;2023-08-06T17:02:25;14.80;87.40
3067;DHT22;1544;48.834;9.194;2023-08-06T17:05:01;14.70;89.30
3067;DHT22;1544;48.834;9.194;2023-08-06T17:07:37;14.50;90.10
3067;DHT22;1544;48.834;9.194;2023-08-06T17:10:13;14.40;90.40
3067;DHT22;1544;48.834;9.194;2023-08-06T17:12:49;14.30;90.80
3067;DHT22;1544;48.834;9.194;2023-08-06T17:15:30;14.30;91.00
3067;DHT22;1544;48.834;9.194;2023-08-06T17:18:08;14.30;91.80
3067;DHT22;1544;48.834;9.194;2023-08-06T17:20:46;14.40;92.10
3067;DHT22;1544;48.834;9.194;2023-08-06T17:23:22;14.40;92.10
3067;DHT22;1544;48.834;9.194;2023-08-06T17:25:58;14.50;92.40